createdAt,value
2019-05-05T00:01:47.626Z,7.87
2019-05-05T00:04:34.750Z,8.93
2019-05-05T00:07:04.277Z,7.50
2019-05-05T00:09:31.414Z,5.97
2019-05-05T00:12:16.615Z,7.97
2019-05-05T00:15:05.292Z,7.45
2019-05-05T00:17:34.278Z,6.40
2019-05-05T00:20:01.675Z,7.78
2019-05-05T00:22:28.875Z,7.58
2019-05-05T00:24:56.246Z,4.90
2019-05-05T00:27:25.295Z,7.08
2019-05-05T00:29:54.733Z,6.00
2019-05-05T00:32:21.964Z,7.05
2019-05-05T00:34:49.331Z,6.85
2019-05-05T00:37:16.655Z,4.25
2019-05-05T00:39:45.263Z,6.20
2019-05-05T00:42:15.240Z,10.48
2019-05-05T00:44:44.492Z,8.03
2019-05-05T00:47:28.730Z,5.53
2019-05-05T00:49:56.407Z,6.72
2019-05-05T00:52:24.597Z,6.05
2019-05-05T00:54:52.018Z,7.72
2019-05-05T00:57:19.392Z,9.33
2019-05-05T00:59:46.664Z,6.47
2019-05-05T01:02:39.771Z,4.55
2019-05-05T01:05:41.929Z,6.60
2019-05-05T01:08:14.454Z,7.12
2019-05-05T01:10:44.218Z,8.05
2019-05-05T01:13:11.852Z,7.92
2019-05-05T01:15:39.120Z,10.53
2019-05-05T01:18:06.508Z,11.28
2019-05-05T01:20:34.321Z,6.37
2019-05-05T01:23:01.792Z,6.95
2019-05-05T01:25:29.129Z,7.05
2019-05-05T01:27:56.648Z,8.70
2019-05-05T01:30:28.091Z,6.70
2019-05-05T01:33:02.476Z,8.85
2019-05-05T01:35:29.843Z,7.37
2019-05-05T01:38:11.676Z,6.83
2019-05-05T01:40:56.848Z,9.68
2019-05-05T01:43:25.323Z,10.60
2019-05-05T01:45:54.563Z,6.35
2019-05-05T01:48:21.965Z,5.78
2019-05-05T01:50:49.312Z,9.35
2019-05-05T01:53:16.650Z,6.58
2019-05-05T01:55:45.192Z,8.00
2019-05-05T01:58:15.179Z,9.63
2019-05-05T02:00:42.412Z,7.50
2019-05-05T02:03:09.857Z,6.58
2019-05-05T02:05:37.224Z,7.78
2019-05-05T02:08:05.100Z,6.05
2019-05-05T02:10:34.694Z,8.63
2019-05-05T02:13:01.769Z,7.33
2019-05-05T02:15:29.074Z,9.55
2019-05-05T02:17:56.385Z,13.35
2019-05-05T02:20:40.359Z,8.63
2019-05-05T02:23:07.993Z,9.15
2019-05-05T02:25:35.395Z,8.75
2019-05-05T02:28:04.485Z,8.15
2019-05-05T02:30:48.154Z,6.03
2019-05-05T02:33:15.895Z,9.48
2019-05-05T02:35:45.856Z,6.03
2019-05-05T02:38:15.677Z,7.97
2019-05-05T02:40:45.176Z,8.83
2019-05-05T02:43:15.056Z,6.83
2019-05-05T02:46:05.312Z,6.72
2019-05-05T02:48:35.252Z,9.90
2019-05-05T02:51:03.986Z,9.70
2019-05-05T02:53:36.005Z,11.10
2019-05-05T02:56:06.061Z,9.20
2019-05-05T02:58:34.262Z,6.60
2019-05-05T03:01:24.793Z,7.95
2019-05-05T03:03:54.271Z,11.35
2019-05-05T03:06:23.672Z,8.90
2019-05-05T03:08:54.250Z,12.33
2019-05-05T03:11:23.723Z,12.25
2019-05-05T03:13:54.661Z,7.47
2019-05-05T03:16:25.973Z,12.25
2019-05-05T03:18:54.559Z,9.83
2019-05-05T03:21:24.150Z,9.48
2019-05-05T03:23:51.165Z,10.00
2019-05-05T03:26:18.928Z,11.43
2019-05-05T03:28:51.924Z,12.18
2019-05-05T03:31:19.849Z,8.48
2019-05-05T03:33:47.478Z,10.35
2019-05-05T03:36:15.417Z,10.28
2019-05-05T03:38:44.374Z,9.88
2019-05-05T03:41:35.445Z,7.85
2019-05-05T03:44:14.143Z,10.82
2019-05-05T03:46:43.724Z,9.85
2019-05-05T03:49:11.324Z,8.98
2019-05-05T03:51:38.713Z,13.75
2019-05-05T03:54:06.380Z,9.60
2019-05-05T03:56:34.792Z,8.48
2019-05-05T03:59:04.697Z,10.72
2019-05-05T04:01:35.982Z,9.00
2019-05-05T04:04:21.243Z,12.23
2019-05-05T04:06:49.842Z,7.53
2019-05-05T04:09:17.394Z,10.82
2019-05-05T04:11:44.790Z,10.08
2019-05-05T04:14:14.240Z,10.82
2019-05-05T04:17:03.396Z,10.00
2019-05-05T04:19:31.345Z,10.80
2019-05-05T04:21:58.669Z,8.78
2019-05-05T04:24:26.043Z,9.38
2019-05-05T04:26:54.582Z,9.40
2019-05-05T04:29:24.268Z,9.65
2019-05-05T04:31:53.890Z,7.12
2019-05-05T04:34:21.023Z,12.98
2019-05-05T04:36:48.273Z,9.98
2019-05-05T04:39:15.645Z,10.60
2019-05-05T04:41:44.044Z,9.28
2019-05-05T04:44:11.553Z,10.55
2019-05-05T04:46:38.929Z,10.60
2019-05-05T04:49:23.494Z,11.45
2019-05-05T04:51:53.790Z,11.93
2019-05-05T04:54:26.003Z,9.28
2019-05-05T04:56:53.988Z,9.83
2019-05-05T04:59:23.401Z,8.48
2019-05-05T05:01:54.625Z,10.15
2019-05-05T05:04:45.655Z,7.30
2019-05-05T05:07:13.806Z,9.20
2019-05-05T05:09:43.370Z,8.35
2019-05-05T05:12:10.404Z,8.45
2019-05-05T05:14:37.731Z,9.65
2019-05-05T05:17:09.492Z,8.30
2019-05-05T05:19:36.754Z,10.25
2019-05-05T05:22:04.962Z,7.92
2019-05-05T05:24:34.375Z,8.38
2019-05-05T05:27:01.528Z,6.22
2019-05-05T05:29:28.849Z,12.07
2019-05-05T05:31:56.190Z,12.00
2019-05-05T05:34:23.934Z,8.88
2019-05-05T05:36:53.508Z,10.55
2019-05-05T05:39:33.510Z,11.25
2019-05-05T05:42:00.980Z,11.08
2019-05-05T05:44:58.738Z,12.07
2019-05-05T05:47:31.321Z,14.20
2019-05-05T05:50:07.703Z,12.68
2019-05-05T05:52:34.957Z,9.65
2019-05-05T05:55:04.060Z,7.80
2019-05-05T05:57:31.486Z,10.30
2019-05-05T05:59:58.903Z,9.83
2019-05-05T06:02:26.243Z,11.70
2019-05-05T06:04:54.021Z,11.15
2019-05-05T06:07:21.513Z,12.55
2019-05-05T06:09:48.943Z,12.15
2019-05-05T06:12:16.371Z,11.63
2019-05-05T06:14:44.732Z,9.53
2019-05-05T06:17:13.498Z,8.85
2019-05-05T06:19:41.070Z,10.95
2019-05-05T06:22:08.403Z,11.55
2019-05-05T06:24:35.790Z,9.03
2019-05-05T06:27:03.705Z,9.48
2019-05-05T06:29:31.230Z,11.35
2019-05-05T06:31:58.585Z,8.40
2019-05-05T06:34:25.847Z,7.70
2019-05-05T06:36:53.763Z,10.78
2019-05-05T06:39:21.373Z,8.03
2019-05-05T06:42:06.713Z,9.50
2019-05-05T06:44:53.630Z,8.80
2019-05-05T06:47:24.341Z,10.68
2019-05-05T06:49:54.071Z,12.03
2019-05-05T06:52:21.156Z,11.45
2019-05-05T06:54:48.627Z,10.38
2019-05-05T06:57:15.908Z,10.15
2019-05-05T06:59:43.929Z,12.37
2019-05-05T07:02:11.464Z,14.20
2019-05-05T07:04:38.762Z,7.10
2019-05-05T07:07:06.020Z,10.03
2019-05-05T07:09:33.715Z,10.50
2019-05-05T07:12:01.092Z,12.60
2019-05-05T07:14:28.475Z,13.18
2019-05-05T07:16:55.838Z,13.80
2019-05-05T07:19:23.916Z,11.40
2019-05-05T07:21:53.616Z,13.60
2019-05-05T07:24:20.815Z,11.65
2019-05-05T07:26:48.194Z,9.95
2019-05-05T07:29:18.084Z,12.15
2019-05-05T07:31:44.806Z,12.93
2019-05-05T07:34:13.723Z,10.97
2019-05-05T07:36:45.540Z,14.93
2019-05-05T07:39:14.376Z,12.47
2019-05-05T07:41:41.902Z,13.32
2019-05-05T07:44:22.758Z,15.53
2019-05-05T07:46:38.672Z,13.43
2019-05-05T07:49:05.960Z,16.03
2019-05-05T07:51:33.708Z,11.97
2019-05-05T07:54:01.054Z,12.40
2019-05-05T07:56:29.432Z,15.23
2019-05-05T07:58:56.776Z,12.00
2019-05-05T08:01:24.540Z,14.23
2019-05-05T08:03:53.826Z,15.03
2019-05-05T08:06:21.161Z,10.80
2019-05-05T08:08:48.548Z,13.53
2019-05-05T08:11:15.957Z,14.23
2019-05-05T08:13:44.347Z,9.53
2019-05-05T08:16:33.578Z,12.80
2019-05-05T08:19:38.275Z,11.93
2019-05-05T08:22:05.630Z,20.47
2019-05-05T08:25:04.579Z,17.67
2019-05-05T08:28:04.279Z,19.90
2019-05-05T08:30:54.627Z,14.07
2019-05-05T08:33:24.068Z,14.73
2019-05-05T08:35:51.352Z,13.27
2019-05-05T08:38:18.721Z,16.07
2019-05-05T08:40:46.072Z,19.40
2019-05-05T08:43:13.930Z,19.43
2019-05-05T08:45:41.348Z,16.83
2019-05-05T08:48:08.688Z,14.90
2019-05-05T08:50:36.098Z,17.30
2019-05-05T08:53:04.436Z,21.37
2019-05-05T08:55:33.960Z,17.23
2019-05-05T08:58:01.544Z,15.70
2019-05-05T09:00:28.801Z,16.50
2019-05-05T09:02:56.182Z,15.67
2019-05-05T09:05:23.886Z,21.63
2019-05-05T09:07:51.348Z,20.23
2019-05-05T09:10:18.679Z,19.73
2019-05-05T09:12:45.980Z,19.10
2019-05-05T09:15:13.762Z,20.13
2019-05-05T09:17:43.770Z,22.00
2019-05-05T09:20:10.399Z,14.57
2019-05-05T09:22:37.624Z,15.43
2019-05-05T09:25:15.500Z,17.40
2019-05-05T09:27:58.838Z,17.57
2019-05-05T09:30:37.962Z,11.70
2019-05-05T09:33:05.300Z,16.73
2019-05-05T09:35:34.231Z,15.23
2019-05-05T09:38:03.862Z,16.77
2019-05-05T09:40:36.786Z,14.60
2019-05-05T09:43:04.558Z,19.93
2019-05-05T09:45:33.654Z,14.17
2019-05-05T09:48:01.126Z,11.67
2019-05-05T09:50:28.376Z,17.77
2019-05-05T09:52:55.734Z,18.00
2019-05-05T09:55:24.202Z,18.20
2019-05-05T09:57:51.678Z,14.67
2019-05-05T10:00:19.007Z,13.00
2019-05-05T10:02:46.266Z,13.87
2019-05-05T10:05:14.555Z,20.83
2019-05-05T10:07:43.902Z,11.17
2019-05-05T10:10:13.685Z,15.40
2019-05-05T10:12:40.807Z,13.93
2019-05-05T10:15:09.252Z,16.73
2019-05-05T10:17:36.615Z,15.20
2019-05-05T10:20:04.211Z,15.80
2019-05-05T10:22:31.585Z,12.93
2019-05-05T10:25:30.415Z,12.80
2019-05-05T10:27:57.761Z,14.90
2019-05-05T10:30:25.072Z,20.37
2019-05-05T10:32:54.396Z,14.70
2019-05-05T10:35:23.606Z,14.17
2019-05-05T10:37:50.779Z,12.10
2019-05-05T10:40:22.079Z,12.47
2019-05-05T10:42:49.429Z,14.20
2019-05-05T10:45:17.665Z,13.13
2019-05-05T10:47:45.055Z,12.50
2019-05-05T10:50:13.921Z,13.77
2019-05-05T10:52:41.349Z,12.37
2019-05-05T10:55:08.869Z,12.77
2019-05-05T10:57:36.253Z,19.20
2019-05-05T11:00:12.230Z,11.93
2019-05-05T11:02:34.647Z,11.80
2019-05-05T11:05:03.961Z,10.90
2019-05-05T11:07:31.361Z,10.27
2019-05-05T11:09:58.721Z,13.20
2019-05-05T11:12:26.091Z,9.53
2019-05-05T11:14:54.457Z,9.37
2019-05-05T11:17:24.628Z,13.00
2019-05-05T11:19:51.130Z,13.63
2019-05-05T11:22:18.550Z,12.60
2019-05-05T11:24:57.412Z,11.07
2019-05-05T11:27:15.288Z,10.63
2019-05-05T11:30:00.588Z,10.93
2019-05-05T11:32:45.723Z,9.10
2019-05-05T11:35:13.953Z,10.23
2019-05-05T11:37:43.737Z,8.40
2019-05-05T11:40:13.390Z,12.80
2019-05-05T11:42:40.887Z,7.83
2019-05-05T11:45:08.376Z,10.57
2019-05-05T11:47:35.647Z,8.33
2019-05-05T11:50:04.405Z,10.93
2019-05-05T11:52:33.716Z,13.50
2019-05-05T11:55:09.642Z,14.27
2019-05-05T11:57:30.447Z,12.53
2019-05-05T11:59:57.800Z,16.03
2019-05-05T12:02:25.167Z,13.00
2019-05-05T12:04:54.063Z,14.00
2019-05-05T12:07:23.606Z,13.67
2019-05-05T12:09:54.998Z,11.83
2019-05-05T12:12:22.392Z,12.73
2019-05-05T12:14:50.708Z,13.67
2019-05-05T12:17:33.713Z,12.87
2019-05-05T12:20:04.585Z,11.07
2019-05-05T12:22:31.520Z,16.03
2019-05-05T12:24:59.227Z,12.23
2019-05-05T12:27:33.742Z,11.30
2019-05-05T12:30:05.011Z,18.73
2019-05-05T12:32:34.657Z,16.27
2019-05-05T12:35:01.641Z,11.80
2019-05-05T12:37:29.018Z,11.43
2019-05-05T12:39:56.449Z,14.57
2019-05-05T12:42:24.307Z,9.27
2019-05-05T12:44:57.506Z,9.57
2019-05-05T12:47:40.441Z,11.83
2019-05-05T12:50:08.915Z,11.33
2019-05-05T12:52:36.276Z,8.17
2019-05-05T12:55:05.071Z,12.20
2019-05-05T12:57:34.284Z,14.30
2019-05-05T13:00:04.061Z,11.40
2019-05-05T13:02:31.436Z,14.70
2019-05-05T13:04:58.812Z,9.87
2019-05-05T13:07:26.189Z,13.97
2019-05-05T13:09:54.494Z,13.03
2019-05-05T13:12:23.859Z,16.43
2019-05-05T13:14:51.226Z,9.90
2019-05-05T13:17:18.595Z,11.30
2019-05-05T13:20:06.760Z,14.17
2019-05-05T13:22:56.563Z,10.97
2019-05-05T13:25:56.775Z,13.37
2019-05-05T13:28:23.333Z,11.90
2019-05-05T13:30:50.934Z,12.37
2019-05-05T13:33:18.312Z,12.67
2019-05-05T13:35:45.788Z,8.27
2019-05-05T13:38:14.587Z,8.67
2019-05-05T13:40:43.899Z,6.53
2019-05-05T13:43:11.464Z,7.47
2019-05-05T13:45:48.010Z,8.83
2019-05-05T13:48:15.443Z,7.13
2019-05-05T13:50:45.348Z,6.43
2019-05-05T13:53:14.356Z,8.20
2019-05-05T13:55:45.915Z,6.33
2019-05-05T13:58:11.263Z,6.47
2019-05-05T14:00:38.628Z,7.00
2019-05-05T14:03:05.963Z,5.07
2019-05-05T14:05:34.389Z,6.40
2019-05-05T14:08:04.035Z,9.40
2019-05-05T14:10:31.185Z,6.57
2019-05-05T14:12:58.545Z,7.53
2019-05-05T14:15:25.979Z,7.37
2019-05-05T14:17:54.394Z,7.00
2019-05-05T14:20:23.853Z,9.77
2019-05-05T14:22:51.359Z,8.80
2019-05-05T14:25:24.217Z,9.13
2019-05-05T14:27:51.589Z,9.80
2019-05-05T14:30:43.597Z,11.10
2019-05-05T14:33:15.891Z,12.77
2019-05-05T14:36:08.713Z,9.53
2019-05-05T14:38:41.672Z,9.47
2019-05-05T14:41:09.044Z,9.50
2019-05-05T14:43:36.431Z,9.60
2019-05-05T14:46:03.883Z,10.13
2019-05-05T14:48:31.231Z,12.73
2019-05-05T14:50:58.579Z,10.93
2019-05-05T14:53:25.990Z,12.50
2019-05-05T14:55:53.807Z,11.03
2019-05-05T14:58:21.304Z,13.23
2019-05-05T15:00:48.647Z,11.07
2019-05-05T15:03:16.001Z,10.93
2019-05-05T15:05:48.988Z,12.03
2019-05-05T15:08:31.136Z,7.53
2019-05-05T15:11:18.012Z,11.73
2019-05-05T15:13:45.252Z,8.60
2019-05-05T15:16:13.971Z,12.17
2019-05-05T15:18:41.700Z,10.70
2019-05-05T15:21:09.085Z,9.27
2019-05-05T15:23:36.556Z,10.13
2019-05-05T15:26:04.495Z,9.57
2019-05-05T15:28:33.656Z,7.20
2019-05-05T15:31:01.096Z,5.63
2019-05-05T15:33:28.364Z,6.80
2019-05-05T15:35:55.633Z,5.47
2019-05-05T15:38:24.460Z,9.10
2019-05-05T15:40:51.994Z,7.53
2019-05-05T15:43:19.398Z,8.93
2019-05-05T15:45:46.783Z,5.17
2019-05-05T15:48:14.184Z,7.83
2019-05-05T15:50:41.564Z,6.93
2019-05-05T15:53:08.952Z,9.07
2019-05-05T15:55:36.178Z,8.17
2019-05-05T15:58:03.647Z,9.40
2019-05-05T16:00:31.122Z,8.67
2019-05-05T16:02:58.460Z,9.60
2019-05-05T16:05:25.832Z,7.60
2019-05-05T16:07:54.263Z,8.83
2019-05-05T16:10:23.235Z,6.07
2019-05-05T16:12:51.075Z,9.23
2019-05-05T16:15:40.436Z,9.73
2019-05-05T16:18:13.765Z,9.87
2019-05-05T16:20:45.936Z,11.30
2019-05-05T16:23:19.372Z,8.93
2019-05-05T16:25:46.847Z,11.60
2019-05-05T16:28:14.599Z,7.87
2019-05-05T16:30:42.150Z,9.20
2019-05-05T16:33:09.554Z,10.73
2019-05-05T16:35:36.912Z,9.13
2019-05-05T16:38:06.541Z,6.70
2019-05-05T16:40:33.845Z,10.03
2019-05-05T16:43:01.319Z,7.93
2019-05-05T16:45:28.831Z,7.90
2019-05-05T16:47:56.177Z,7.70
2019-05-05T16:50:25.101Z,9.10
2019-05-05T16:53:03.964Z,10.07
2019-05-05T16:55:44.935Z,11.17
2019-05-05T16:58:13.923Z,9.20
2019-05-05T17:00:41.484Z,9.43
2019-05-05T17:03:08.835Z,11.70
2019-05-05T17:05:36.252Z,8.40
2019-05-05T17:08:04.502Z,10.50
2019-05-05T17:10:34.096Z,8.37
2019-05-05T17:13:09.188Z,9.47
2019-05-05T17:15:56.098Z,8.90
2019-05-05T17:18:44.873Z,8.43
2019-05-05T17:21:18.750Z,10.43
2019-05-05T17:23:46.130Z,10.30
2019-05-05T17:26:14.407Z,17.03
2019-05-05T17:28:44.422Z,6.63
2019-05-05T17:31:12.293Z,13.30
2019-05-05T17:33:39.618Z,11.67
2019-05-05T17:36:06.900Z,12.30
2019-05-05T17:38:34.350Z,14.40
2019-05-05T17:41:19.641Z,8.17
2019-05-05T17:44:09.150Z,9.70
2019-05-05T17:46:44.514Z,11.87
2019-05-05T17:49:19.039Z,7.97
2019-05-05T17:51:58.196Z,11.17
2019-05-05T17:54:45.103Z,6.17
2019-05-05T17:57:14.189Z,13.97
2019-05-05T17:59:43.966Z,9.77
2019-05-05T18:02:11.086Z,9.07
2019-05-05T18:04:39.006Z,11.30
2019-05-05T18:07:11.273Z,7.60
2019-05-05T18:09:55.234Z,12.03
2019-05-05T18:12:54.051Z,10.83
2019-05-05T18:15:39.620Z,9.30
2019-05-05T18:18:07.005Z,10.40
2019-05-05T18:20:34.393Z,11.50
2019-05-05T18:23:01.869Z,9.47
2019-05-05T18:25:29.306Z,12.40
2019-05-05T18:27:56.738Z,12.80
2019-05-05T18:30:24.123Z,11.47
2019-05-05T18:32:53.311Z,11.50
2019-05-05T18:35:20.710Z,16.10
2019-05-05T18:37:48.081Z,14.23
2019-05-05T18:40:15.469Z,19.27
2019-05-05T18:42:44.583Z,18.00
2019-05-05T18:45:12.729Z,16.90
2019-05-05T18:47:40.149Z,11.30
2019-05-05T18:50:07.621Z,16.37
2019-05-05T18:52:34.962Z,12.40
2019-05-05T18:55:04.250Z,15.00
2019-05-05T18:57:31.589Z,17.20
2019-05-05T18:59:58.968Z,11.27
2019-05-05T19:02:45.873Z,11.37
2019-05-05T19:05:29.399Z,12.60
2019-05-05T19:08:00.362Z,13.90
2019-05-05T19:10:27.733Z,15.50
2019-05-05T19:12:55.107Z,17.80
2019-05-05T19:15:24.399Z,11.87
2019-05-05T19:17:51.811Z,13.13
2019-05-05T19:20:28.320Z,12.37
2019-05-05T19:23:02.730Z,11.97
2019-05-05T19:25:29.542Z,9.63
2019-05-05T19:27:56.898Z,16.30
2019-05-05T19:30:25.653Z,13.00
2019-05-05T19:32:54.203Z,14.93
2019-05-05T19:35:25.012Z,8.07
2019-05-05T19:37:50.906Z,15.80
2019-05-05T19:40:18.302Z,13.90
2019-05-05T19:42:46.256Z,10.60
2019-05-05T19:45:13.992Z,14.97
2019-05-05T19:47:43.706Z,8.67
2019-05-05T19:50:20.802Z,11.60
2019-05-05T19:52:48.170Z,10.87
2019-05-05T19:55:15.526Z,14.37
2019-05-05T19:57:44.522Z,13.27
2019-05-05T20:00:14.443Z,11.83
2019-05-05T20:02:43.654Z,14.77
2019-05-05T20:05:13.760Z,8.80
2019-05-05T20:07:42.002Z,10.80
2019-05-05T20:10:10.734Z,9.77
2019-05-05T20:12:38.112Z,9.63
2019-05-05T20:15:07.636Z,13.03
2019-05-05T20:17:36.152Z,9.90
2019-05-05T20:20:05.010Z,14.03
2019-05-05T20:22:34.621Z,13.20
2019-05-05T20:25:01.581Z,10.90
2019-05-05T20:27:29.021Z,12.17
2019-05-05T20:29:56.424Z,12.50
2019-05-05T20:32:30.384Z,15.00
2019-05-05T20:35:04.171Z,12.50
2019-05-05T20:37:50.621Z,16.23
2019-05-05T20:40:19.913Z,15.53
2019-05-05T20:42:47.299Z,10.27
2019-05-05T20:45:18.505Z,11.43
2019-05-05T20:47:45.860Z,12.90
2019-05-05T20:50:13.460Z,16.20
2019-05-05T20:52:40.674Z,14.33
2019-05-05T20:55:08.055Z,13.73
2019-05-05T20:57:35.318Z,13.83
2019-05-05T21:00:03.000Z,15.80
2019-05-05T21:02:30.382Z,10.30
2019-05-05T21:04:57.697Z,11.63
2019-05-05T21:07:26.586Z,13.07
2019-05-05T21:09:54.034Z,14.43
2019-05-05T21:12:21.368Z,12.97
2019-05-05T21:14:48.760Z,13.53
2019-05-05T21:17:16.136Z,9.53
2019-05-05T21:19:43.434Z,17.27
2019-05-05T21:22:28.682Z,12.10
2019-05-05T21:24:56.300Z,12.07
2019-05-05T21:27:24.472Z,11.07
2019-05-05T21:29:54.317Z,11.47
2019-05-05T21:32:21.268Z,11.63
2019-05-05T21:34:48.519Z,13.20
2019-05-05T21:37:16.170Z,10.80
2019-05-05T21:39:45.447Z,10.03
2019-05-05T21:42:14.033Z,11.23
2019-05-05T21:44:43.995Z,6.17
2019-05-05T21:47:10.995Z,9.53
2019-05-05T21:49:38.469Z,12.67
2019-05-05T21:52:34.639Z,8.87
2019-05-05T21:55:27.530Z,7.83
2019-05-05T21:58:08.620Z,11.03
2019-05-05T22:00:57.744Z,10.53
2019-05-05T22:03:31.235Z,11.80
2019-05-05T22:05:58.608Z,8.00
2019-05-05T22:08:25.848Z,6.40
2019-05-05T22:10:54.359Z,11.17
2019-05-05T22:13:21.826Z,10.10
2019-05-05T22:15:49.317Z,8.63
2019-05-05T22:18:16.548Z,7.13
2019-05-05T22:20:49.280Z,10.40
2019-05-05T22:23:16.620Z,10.03
2019-05-05T22:25:43.944Z,8.90
2019-05-05T22:28:11.320Z,8.17
2019-05-05T22:30:38.665Z,7.17
2019-05-05T22:33:06.165Z,8.53
2019-05-05T22:35:34.866Z,7.27
2019-05-05T22:38:05.871Z,6.73
2019-05-05T22:40:31.585Z,8.53
2019-05-05T22:42:58.958Z,6.70
2019-05-05T22:45:26.180Z,9.27
2019-05-05T22:47:54.327Z,7.03
2019-05-05T22:50:21.774Z,10.43
2019-05-05T22:52:49.012Z,11.00
2019-05-05T22:55:16.356Z,9.17
2019-05-05T22:57:45.198Z,8.43
2019-05-05T23:00:25.677Z,11.47
2019-05-05T23:02:48.328Z,8.37
2019-05-05T23:05:24.882Z,12.30
2019-05-05T23:07:52.158Z,8.95
2019-05-05T23:10:19.581Z,10.70
2019-05-05T23:12:46.916Z,7.63
2019-05-05T23:15:15.182Z,11.33
2019-05-05T23:18:03.855Z,7.50
2019-05-05T23:20:45.660Z,11.78
2019-05-05T23:23:23.635Z,8.10
2019-05-05T23:25:54.382Z,10.63
2019-05-05T23:28:23.728Z,10.23
2019-05-05T23:30:50.924Z,9.47
2019-05-05T23:33:18.300Z,12.23
2019-05-05T23:35:45.636Z,11.47
2019-05-05T23:38:14.378Z,10.57
2019-05-05T23:40:41.842Z,11.03
2019-05-05T23:43:09.080Z,7.20
2019-05-05T23:45:36.442Z,9.47
2019-05-05T23:48:03.857Z,9.65
2019-05-05T23:50:31.168Z,16.47
2019-05-05T23:52:58.434Z,10.68
2019-05-05T23:55:25.734Z,12.50
2019-05-05T23:57:54.621Z,9.47
